createdAt,value
2024-01-08T00:00:40.784Z,21.77
2024-01-08T00:01:40.766Z,21.78
2024-01-08T00:02:40.727Z,21.80
2024-01-08T00:03:40.760Z,21.78
2024-01-08T00:04:40.705Z,21.77
2024-01-08T00:05:40.871Z,21.77
2024-01-08T00:06:40.753Z,21.78
2024-01-08T00:07:40.709Z,21.77
2024-01-08T00:08:40.714Z,21.81
2024-01-08T00:09:40.706Z,21.78
2024-01-08T00:10:40.716Z,21.77
2024-01-08T00:11:40.728Z,21.77
2024-01-08T00:12:40.721Z,21.75
2024-01-08T00:13:40.722Z,21.77
2024-01-08T00:14:40.718Z,21.77
2024-01-08T00:15:40.733Z,21.75
2024-01-08T00:16:40.718Z,21.77
2024-01-08T00:17:40.804Z,21.78
2024-01-08T00:18:40.804Z,21.75
2024-01-08T00:19:40.747Z,21.78
2024-01-08T00:20:40.743Z,21.77
2024-01-08T00:21:40.725Z,21.77
2024-01-08T00:22:40.759Z,21.74
2024-01-08T00:23:40.741Z,21.77
2024-01-08T00:24:40.756Z,21.72
2024-01-08T00:25:40.734Z,21.72
2024-01-08T00:27:40.743Z,21.71
2024-01-08T00:28:40.736Z,21.72
2024-01-08T00:29:40.739Z,21.74
2024-01-08T00:30:40.766Z,21.72
2024-01-08T00:31:40.829Z,21.75
2024-01-08T00:32:40.908Z,21.72
2024-01-08T00:33:40.814Z,21.74
2024-01-08T00:34:40.757Z,21.72
2024-01-08T00:35:40.807Z,21.72
2024-01-08T00:36:40.749Z,21.74
2024-01-08T00:37:40.760Z,21.74
2024-01-08T00:38:40.756Z,21.74
2024-01-08T00:39:40.755Z,21.75
2024-01-08T00:40:40.759Z,21.72
2024-01-08T00:41:40.755Z,21.75
2024-01-08T00:42:41.124Z,21.75
2024-01-08T00:43:40.759Z,21.71
2024-01-08T00:44:40.811Z,21.75
2024-01-08T00:45:40.776Z,21.74
2024-01-08T00:46:40.769Z,21.71
2024-01-08T00:47:40.852Z,21.75
2024-01-08T00:48:40.782Z,21.71
2024-01-08T00:49:40.777Z,21.72
2024-01-08T00:50:40.793Z,21.72
2024-01-08T00:51:40.782Z,21.75
2024-01-08T00:52:40.789Z,21.75
2024-01-08T00:53:40.787Z,21.72
2024-01-08T00:54:40.781Z,21.69
2024-01-08T00:55:40.793Z,21.72
2024-01-08T00:56:40.802Z,21.75
2024-01-08T00:57:40.793Z,21.72
2024-01-08T00:58:40.796Z,21.71
2024-01-08T00:59:40.798Z,21.72
2024-01-08T01:00:40.811Z,21.71
2024-01-08T01:01:40.793Z,21.72
2024-01-08T01:02:40.854Z,21.72
2024-01-08T01:03:40.981Z,21.71
2024-01-08T01:04:40.971Z,21.72
2024-01-08T01:05:40.871Z,21.72
2024-01-08T01:06:40.811Z,21.72
2024-01-08T01:07:40.826Z,21.71
2024-01-08T01:08:40.808Z,21.74
2024-01-08T01:09:40.816Z,21.74
2024-01-08T01:10:40.837Z,21.72
2024-01-08T01:11:40.818Z,21.74
2024-01-08T01:12:40.843Z,21.71
2024-01-08T01:13:40.840Z,21.74
2024-01-08T01:14:40.819Z,21.75
2024-01-08T01:15:40.827Z,21.74
2024-01-08T01:16:40.830Z,21.74
2024-01-08T01:17:40.929Z,21.75
2024-01-08T01:18:40.915Z,21.74
2024-01-08T01:19:40.834Z,21.74
2024-01-08T01:20:40.834Z,21.74
2024-01-08T01:21:40.840Z,21.74
2024-01-08T01:22:40.851Z,21.72
2024-01-08T01:23:40.878Z,21.77
2024-01-08T01:24:40.853Z,21.75
2024-01-08T01:25:40.862Z,21.75
2024-01-08T01:26:40.875Z,21.75
2024-01-08T01:27:40.889Z,21.77
2024-01-08T01:28:40.887Z,21.75
2024-01-08T01:29:40.922Z,21.75
2024-01-08T01:30:40.954Z,21.78
2024-01-08T01:31:40.912Z,21.77
2024-01-08T01:32:41.005Z,21.80
2024-01-08T01:33:40.981Z,21.78
2024-01-08T01:34:40.920Z,21.80
2024-01-08T01:35:40.970Z,21.80
2024-01-08T01:36:41.043Z,21.80
2024-01-08T01:37:40.969Z,21.81
2024-01-08T01:38:41.029Z,21.80
2024-01-08T01:39:40.935Z,21.80
2024-01-08T01:40:40.934Z,21.81
2024-01-08T01:41:41.027Z,21.82
2024-01-08T01:42:40.980Z,21.82
2024-01-08T01:43:40.978Z,21.81
2024-01-08T01:44:41.033Z,21.81
2024-01-08T01:45:40.989Z,21.80
2024-01-08T01:46:41.012Z,21.80
2024-01-08T01:47:41.152Z,21.80
2024-01-08T01:48:41.121Z,21.82
2024-01-08T01:49:41.052Z,21.84
2024-01-08T01:50:41.074Z,21.84
2024-01-08T01:51:41.064Z,21.84
2024-01-08T01:52:41.053Z,21.81
2024-01-08T01:53:41.057Z,21.84
2024-01-08T01:54:41.092Z,21.81
2024-01-08T01:55:41.089Z,21.82
2024-01-08T01:56:41.091Z,21.80
2024-01-08T01:57:41.114Z,21.82
2024-01-08T01:58:41.111Z,21.82
2024-01-08T01:59:41.200Z,21.82
2024-01-08T02:00:41.155Z,21.82
2024-01-08T02:01:41.138Z,21.82
2024-01-08T02:02:41.247Z,21.82
2024-01-08T02:03:41.191Z,21.82
2024-01-08T02:04:41.245Z,21.82
2024-01-08T02:05:41.209Z,21.82
2024-01-08T02:06:41.174Z,21.84
2024-01-08T02:07:41.181Z,21.81
2024-01-08T02:08:41.205Z,21.81
2024-01-08T02:09:41.206Z,21.80
2024-01-08T02:10:41.322Z,21.82
2024-01-08T02:11:41.309Z,21.84
2024-01-08T02:12:41.282Z,21.84
2024-01-08T02:13:41.292Z,21.82
2024-01-08T02:14:41.391Z,21.82
2024-01-08T02:15:41.316Z,21.81
2024-01-08T02:16:41.310Z,21.81
2024-01-08T02:17:41.357Z,21.82
2024-01-08T02:18:41.396Z,21.82
2024-01-08T02:19:41.337Z,21.82
2024-01-08T02:20:41.331Z,21.82
2024-01-08T02:21:41.335Z,21.82
2024-01-08T02:22:41.344Z,21.81
2024-01-08T02:23:41.357Z,21.81
2024-01-08T02:24:41.348Z,21.80
2024-01-08T02:25:41.371Z,21.81
2024-01-08T02:26:41.416Z,21.82
2024-01-08T02:27:41.374Z,21.81
2024-01-08T02:28:41.382Z,21.82
2024-01-08T02:29:41.438Z,21.82
2024-01-08T02:30:41.457Z,21.81
2024-01-08T02:31:41.454Z,21.80
2024-01-08T02:32:41.517Z,21.81
2024-01-08T02:33:41.433Z,21.80
2024-01-08T02:34:41.459Z,21.81
2024-01-08T02:35:41.446Z,21.78
2024-01-08T02:36:41.453Z,21.82
2024-01-08T02:37:41.469Z,21.82
2024-01-08T02:38:41.466Z,21.80
2024-01-08T02:39:41.469Z,21.81
2024-01-08T02:40:41.474Z,21.81
2024-01-08T02:41:41.484Z,21.81
2024-01-08T02:42:41.496Z,21.80
2024-01-08T02:43:41.498Z,21.81
2024-01-08T02:44:41.494Z,21.82
2024-01-08T02:45:41.499Z,21.80
2024-01-08T02:46:41.517Z,21.81
2024-01-08T02:47:41.858Z,21.78
2024-01-08T02:48:41.616Z,21.80
2024-01-08T02:49:41.509Z,21.81
2024-01-08T02:50:41.526Z,21.80
2024-01-08T02:51:41.522Z,21.80
2024-01-08T02:52:41.534Z,21.82
2024-01-08T02:53:41.549Z,21.81
2024-01-08T02:54:41.534Z,21.81
2024-01-08T02:55:41.532Z,21.81
2024-01-08T02:56:41.565Z,21.80
2024-01-08T02:57:41.569Z,21.81
2024-01-08T02:58:41.578Z,21.82
2024-01-08T02:59:41.560Z,21.80
2024-01-08T03:00:41.596Z,21.81
2024-01-08T03:01:41.578Z,21.80
2024-01-08T03:02:41.621Z,21.81
2024-01-08T03:03:41.635Z,21.82
2024-01-08T03:04:41.607Z,21.81
2024-01-08T03:05:41.653Z,21.81
2024-01-08T03:06:41.658Z,21.81
2024-01-08T03:07:41.628Z,21.81
2024-01-08T03:08:41.680Z,21.80
2024-01-08T03:09:41.646Z,21.81
2024-01-08T03:10:41.645Z,21.78
2024-01-08T03:11:41.664Z,21.80
2024-01-08T03:12:41.664Z,21.81
2024-01-08T03:13:41.680Z,21.82
2024-01-08T03:14:41.698Z,21.81
2024-01-08T03:15:41.709Z,21.82
2024-01-08T03:16:41.743Z,21.80
2024-01-08T03:17:41.920Z,21.81
2024-01-08T03:18:41.817Z,21.82
2024-01-08T03:19:41.721Z,21.81
2024-01-08T03:20:41.812Z,21.82
2024-01-08T03:21:41.769Z,21.81
2024-01-08T03:22:41.783Z,21.81
2024-01-08T03:23:41.896Z,21.81
2024-01-08T03:24:41.843Z,21.81
2024-01-08T03:25:41.818Z,21.84
2024-01-08T03:26:41.853Z,21.81
2024-01-08T03:27:41.815Z,21.82
2024-01-08T03:28:41.823Z,21.81
2024-01-08T03:29:41.842Z,21.80
2024-01-08T03:30:41.951Z,21.80
2024-01-08T03:31:41.846Z,21.81
2024-01-08T03:32:42.048Z,21.81
2024-01-08T03:33:41.902Z,21.82
2024-01-08T03:34:41.854Z,21.80
2024-01-08T03:35:41.897Z,21.84
2024-01-08T03:36:41.876Z,21.82
2024-01-08T03:37:41.884Z,21.80
2024-01-08T03:38:41.890Z,21.80
2024-01-08T03:39:41.892Z,21.81
2024-01-08T03:40:41.892Z,21.80
2024-01-08T03:41:41.897Z,21.82
2024-01-08T03:42:41.909Z,21.81
2024-01-08T03:43:41.912Z,21.81
2024-01-08T03:44:41.903Z,21.78
2024-01-08T03:45:41.914Z,21.81
2024-01-08T03:46:41.932Z,21.82
2024-01-08T03:47:42.080Z,21.80
2024-01-08T03:48:42.027Z,21.80
2024-01-08T03:49:41.922Z,21.81
2024-01-08T03:50:42.002Z,21.78
2024-01-08T03:51:41.943Z,21.81
2024-01-08T03:52:41.944Z,21.82
2024-01-08T03:53:41.981Z,21.81
2024-01-08T03:54:41.948Z,21.82
2024-01-08T03:55:41.970Z,21.82
2024-01-08T03:56:42.035Z,21.84
2024-01-08T03:57:41.968Z,21.81
2024-01-08T03:58:41.992Z,21.82
2024-01-08T03:59:42.019Z,21.81
2024-01-08T04:00:42.053Z,21.82
2024-01-08T04:01:42.002Z,21.84
2024-01-08T04:02:42.257Z,21.82
2024-01-08T04:03:42.060Z,21.85
2024-01-08T04:04:42.009Z,21.82
2024-01-08T04:05:42.112Z,21.84
2024-01-08T04:06:42.072Z,21.82
2024-01-08T04:07:42.034Z,21.81
2024-01-08T04:08:42.189Z,21.81
2024-01-08T04:09:42.052Z,21.82
2024-01-08T04:10:42.079Z,21.82
2024-01-08T04:11:42.082Z,21.82
2024-01-08T04:12:42.114Z,21.84
2024-01-08T04:13:42.122Z,21.81
2024-01-08T04:14:42.169Z,21.82
2024-01-08T04:15:42.143Z,21.84
2024-01-08T04:16:42.187Z,21.82
2024-01-08T04:17:42.274Z,21.82
2024-01-08T04:18:42.219Z,21.81
2024-01-08T04:19:42.157Z,21.84
2024-01-08T04:20:42.225Z,21.82
2024-01-08T04:21:42.168Z,21.81
2024-01-08T04:22:42.181Z,21.81
2024-01-08T04:23:42.192Z,21.81
2024-01-08T04:24:42.198Z,21.80
2024-01-08T04:25:42.199Z,21.80
2024-01-08T04:26:42.198Z,21.78
2024-01-08T04:27:49.402Z,21.75
2024-01-08T04:28:49.498Z,21.77
2024-01-08T04:29:49.406Z,21.80
2024-01-08T04:30:49.556Z,21.77
2024-01-08T04:31:56.774Z,21.74
2024-01-08T04:32:56.866Z,21.74
2024-01-08T04:33:56.851Z,21.75
2024-01-08T04:34:56.820Z,21.75
2024-01-08T04:35:56.776Z,21.74
2024-01-08T04:36:56.775Z,21.77
2024-01-08T04:37:56.786Z,21.75
2024-01-08T04:38:56.778Z,21.74
2024-01-08T04:39:56.813Z,21.74
2024-01-08T04:40:56.803Z,21.75
2024-01-08T04:41:56.790Z,21.75
2024-01-08T04:42:56.784Z,21.74
2024-01-08T04:43:56.828Z,21.74
2024-01-08T04:44:56.785Z,21.72
2024-01-08T04:45:56.798Z,21.72
2024-01-08T04:46:56.834Z,21.74
2024-01-08T04:47:56.873Z,21.71
2024-01-08T04:48:56.832Z,21.75
2024-01-08T04:49:56.853Z,21.72
2024-01-08T04:50:56.788Z,21.74
2024-01-08T04:51:56.791Z,21.75
2024-01-08T04:52:56.812Z,21.75
2024-01-08T04:53:56.810Z,21.75
2024-01-08T04:54:56.811Z,21.74
2024-01-08T04:55:56.824Z,21.72
2024-01-08T04:56:56.817Z,21.74
2024-01-08T04:57:56.806Z,21.72
2024-01-08T04:58:56.950Z,21.74
2024-01-08T04:59:56.803Z,21.74
2024-01-08T05:00:56.813Z,21.72
2024-01-08T05:01:56.877Z,21.72
2024-01-08T05:02:56.827Z,21.72
2024-01-08T05:03:56.816Z,21.72
2024-01-08T05:04:56.876Z,21.72
2024-01-08T05:05:56.868Z,21.71
2024-01-08T05:06:56.809Z,21.74
2024-01-08T05:07:56.835Z,21.69
2024-01-08T05:08:56.804Z,21.72
2024-01-08T05:09:56.808Z,21.72
2024-01-08T05:10:56.870Z,21.71
2024-01-08T05:11:56.811Z,21.74
2024-01-08T05:12:56.826Z,21.71
2024-01-08T05:13:56.836Z,21.71
2024-01-08T05:14:56.817Z,21.71
2024-01-08T05:15:56.818Z,21.74
2024-01-08T05:16:56.881Z,21.71
2024-01-08T05:17:57.000Z,21.72
2024-01-08T05:18:56.937Z,21.72
2024-01-08T05:19:56.873Z,21.72
2024-01-08T05:20:56.834Z,21.71
2024-01-08T05:21:56.835Z,21.71
2024-01-08T05:22:56.873Z,21.71
2024-01-08T05:23:56.832Z,21.71
2024-01-08T05:24:56.845Z,21.71
2024-01-08T05:25:56.880Z,21.71
2024-01-08T05:26:56.842Z,21.72
2024-01-08T05:27:56.867Z,21.71
2024-01-08T05:28:56.892Z,21.71
2024-01-08T05:29:56.845Z,21.69
2024-01-08T05:30:57.068Z,21.72
2024-01-08T05:31:56.874Z,21.71
2024-01-08T05:32:56.944Z,21.68
2024-01-08T05:33:56.887Z,21.71
2024-01-08T05:34:56.883Z,21.71
2024-01-08T05:35:56.864Z,21.71
2024-01-08T05:36:56.883Z,21.71
2024-01-08T05:37:56.888Z,21.71
2024-01-08T05:38:56.871Z,21.69
2024-01-08T05:39:56.875Z,21.71
2024-01-08T05:40:57.177Z,21.71
2024-01-08T05:41:56.893Z,21.71
2024-01-08T05:42:56.874Z,21.71
2024-01-08T05:43:56.928Z,21.71
2024-01-08T05:44:56.889Z,21.71
2024-01-08T05:45:56.888Z,21.71
2024-01-08T05:46:56.919Z,21.71
2024-01-08T05:47:57.014Z,21.71
2024-01-08T05:48:56.997Z,21.69
2024-01-08T05:49:56.915Z,21.69
2024-01-08T05:50:56.906Z,21.71
2024-01-08T05:51:56.902Z,21.69
2024-01-08T05:52:56.985Z,21.72
2024-01-08T05:53:56.902Z,21.71
2024-01-08T05:54:56.909Z,21.69
2024-01-08T05:55:56.937Z,21.72
2024-01-08T05:56:56.913Z,21.71
2024-01-08T05:57:56.906Z,21.71
2024-01-08T05:58:56.931Z,21.69
2024-01-08T05:59:56.910Z,21.69
2024-01-08T06:00:56.907Z,21.71
2024-01-08T06:01:56.932Z,21.72
2024-01-08T06:02:56.930Z,21.72
2024-01-08T06:03:56.953Z,21.71
2024-01-08T06:04:56.955Z,21.71
2024-01-08T06:05:57.093Z,21.71
2024-01-08T06:06:56.940Z,21.71
2024-01-08T06:07:56.961Z,21.71
2024-01-08T06:08:56.926Z,21.69
2024-01-08T06:09:56.932Z,21.66
2024-01-08T06:10:56.963Z,21.71
2024-01-08T06:11:56.934Z,21.71
2024-01-08T06:12:56.971Z,21.69
2024-01-08T06:13:57.974Z,21.69
2024-01-08T06:14:57.003Z,21.72
2024-01-08T06:15:56.937Z,21.69
2024-01-08T06:16:57.000Z,21.72
2024-01-08T06:17:56.977Z,21.71
2024-01-08T06:18:56.987Z,21.71
2024-01-08T06:19:56.982Z,21.71
2024-01-08T06:20:56.952Z,21.71
2024-01-08T06:21:56.946Z,21.72
2024-01-08T06:22:57.030Z,21.71
2024-01-08T06:23:56.965Z,21.72
2024-01-08T06:24:56.963Z,21.74
2024-01-08T06:25:57.039Z,21.75
2024-01-08T06:26:56.959Z,21.80
2024-01-08T06:27:56.965Z,21.81
2024-01-08T06:28:57.023Z,21.84
2024-01-08T06:29:56.975Z,21.88
2024-01-08T06:30:57.080Z,21.88
2024-01-08T06:31:57.074Z,21.91
2024-01-08T06:32:57.162Z,21.96
2024-01-08T06:33:57.115Z,21.96
2024-01-08T06:34:57.019Z,21.99
2024-01-08T06:35:57.081Z,22.05
2024-01-08T06:36:57.010Z,22.06
2024-01-08T06:37:57.056Z,22.15
2024-01-08T06:38:56.991Z,22.22
2024-01-08T06:39:56.985Z,22.26
2024-01-08T06:40:57.166Z,22.31
2024-01-08T06:41:57.976Z,22.35
2024-01-08T06:43:01.301Z,22.40
2024-01-08T06:43:58.037Z,22.43
2024-01-08T06:44:56.997Z,22.45
2024-01-08T06:45:57.018Z,22.49
2024-01-08T06:46:57.078Z,22.49
2024-01-08T06:47:57.091Z,22.48
2024-01-08T06:48:57.090Z,22.49
2024-01-08T06:49:57.038Z,22.49
2024-01-08T06:50:56.996Z,22.49
2024-01-08T06:51:57.028Z,22.49
2024-01-08T06:52:57.501Z,22.50
2024-01-08T06:53:57.043Z,22.52
2024-01-08T06:54:57.010Z,22.50
2024-01-08T06:55:57.022Z,22.50
2024-01-08T06:56:57.090Z,22.49
2024-01-08T06:57:57.038Z,22.46
2024-01-08T06:58:57.052Z,22.45
2024-01-08T06:59:57.086Z,22.43
2024-01-08T07:00:57.087Z,22.38
2024-01-08T07:01:57.473Z,22.38
2024-01-08T07:02:57.289Z,22.35
2024-01-08T07:03:57.189Z,22.31
2024-01-08T07:04:57.412Z,22.31
2024-01-08T07:05:57.452Z,22.29
2024-01-08T07:06:57.367Z,22.26
2024-01-08T07:07:57.576Z,22.20
2024-01-08T07:08:57.509Z,22.23
2024-01-08T07:09:57.539Z,22.22
2024-01-08T07:10:57.664Z,22.18
2024-01-08T07:11:57.713Z,22.19
2024-01-08T07:12:57.750Z,22.16
2024-01-08T07:13:58.277Z,22.13
2024-01-08T07:14:57.899Z,22.13
2024-01-08T07:15:57.963Z,22.12
2024-01-08T07:16:58.074Z,22.11
2024-01-08T07:17:59.962Z,22.11
2024-01-08T07:18:58.188Z,22.09
2024-01-08T07:19:58.263Z,22.08
2024-01-08T07:20:58.279Z,22.08
2024-01-08T07:21:58.377Z,22.06
2024-01-08T07:22:58.485Z,22.08
2024-01-08T07:23:58.551Z,22.06
2024-01-08T07:24:58.575Z,22.06
2024-01-08T07:25:58.679Z,22.05
2024-01-08T07:26:58.693Z,22.05
2024-01-08T07:27:58.779Z,22.05
2024-01-08T07:28:58.855Z,22.05
2024-01-08T07:29:58.917Z,22.05
2024-01-08T07:30:59.089Z,22.04
2024-01-08T07:31:59.109Z,22.04
2024-01-08T07:32:59.207Z,22.02
2024-01-08T07:33:59.333Z,22.04
2024-01-08T07:34:59.332Z,22.04
2024-01-08T07:35:59.328Z,22.04
2024-01-08T07:36:59.401Z,22.06
2024-01-08T07:38:00.058Z,22.05
2024-01-08T07:39:00.011Z,22.04
2024-01-08T07:39:59.615Z,22.05
2024-01-08T07:40:59.669Z,22.08
2024-01-08T07:41:59.712Z,22.09
2024-01-08T07:42:59.961Z,22.11
2024-01-08T07:43:59.898Z,22.12
2024-01-08T07:45:00.062Z,22.15
2024-01-08T07:45:59.902Z,22.19
2024-01-08T07:47:00.532Z,22.19
2024-01-08T07:48:00.371Z,22.23
2024-01-08T07:49:00.043Z,22.22
2024-01-08T07:49:59.996Z,22.23
2024-01-08T07:51:00.060Z,22.22
2024-01-08T07:52:00.011Z,22.28
2024-01-08T07:53:00.055Z,22.29
2024-01-08T07:54:00.088Z,22.28
2024-01-08T07:55:00.047Z,22.29
2024-01-08T07:56:00.121Z,22.29
2024-01-08T07:57:02.835Z,22.31
2024-01-08T07:58:00.077Z,22.34
2024-01-08T07:59:00.110Z,22.34
2024-01-08T08:00:00.095Z,22.32
2024-01-08T08:01:00.122Z,22.35
2024-01-08T08:02:00.315Z,22.36
2024-01-08T08:03:00.175Z,22.36
2024-01-08T08:04:03.300Z,22.36
2024-01-08T08:05:00.149Z,22.38
2024-01-08T08:06:00.291Z,22.36
2024-01-08T08:07:00.156Z,22.38
2024-01-08T08:08:00.202Z,22.36
2024-01-08T08:09:00.132Z,22.38
2024-01-08T10:24:02.733Z,21.78
2024-01-08T10:24:25.125Z,21.85
2024-01-08T10:25:25.067Z,21.91
2024-01-08T10:26:25.151Z,21.96
2024-01-08T10:27:25.055Z,22.01
2024-01-08T10:28:25.068Z,22.04
2024-01-08T10:29:25.099Z,22.11
2024-01-08T10:30:25.092Z,22.16
2024-01-08T10:31:25.073Z,22.18
2024-01-08T10:32:25.217Z,22.22
2024-01-08T10:33:25.632Z,22.26
2024-01-08T10:34:25.114Z,22.29
2024-01-08T10:35:25.090Z,22.32
2024-01-08T10:36:25.064Z,22.36
2024-01-08T10:37:25.061Z,22.39
2024-01-08T10:38:25.540Z,22.39
2024-01-08T10:39:30.906Z,22.42
2024-01-08T10:40:26.125Z,22.46
2024-01-08T10:41:25.148Z,22.52
2024-01-08T10:42:25.121Z,22.53
2024-01-08T10:43:25.479Z,22.55
2024-01-08T10:44:25.225Z,22.58
2024-01-08T10:45:25.119Z,22.60
2024-01-08T10:46:25.120Z,22.63
2024-01-08T10:47:28.710Z,22.63
2024-01-08T10:48:25.602Z,22.64
2024-01-08T10:49:25.185Z,22.63
2024-01-08T10:50:25.183Z,22.69
2024-01-08T10:51:25.127Z,22.67
2024-01-08T10:52:25.155Z,22.71
2024-01-08T10:53:25.520Z,22.70
2024-01-08T10:54:25.145Z,22.71
2024-01-08T10:55:25.152Z,22.71
2024-01-08T10:56:25.156Z,22.79
2024-01-08T10:57:25.145Z,22.79
2024-01-08T10:58:25.153Z,22.82
2024-01-08T10:59:25.210Z,22.83
2024-01-08T11:00:25.154Z,22.83
2024-01-08T11:01:25.144Z,22.83
2024-01-08T11:02:25.197Z,22.85
2024-01-08T11:03:25.215Z,22.82
2024-01-08T11:04:25.194Z,22.85
2024-01-08T11:05:25.326Z,22.85
2024-01-08T11:06:25.207Z,22.89
2024-01-08T11:07:25.153Z,22.85
2024-01-08T11:08:25.243Z,22.87
2024-01-08T11:09:25.237Z,22.86
2024-01-08T11:10:25.199Z,22.89
2024-01-08T11:11:25.259Z,22.87
2024-01-08T11:12:25.312Z,22.89
2024-01-08T11:13:25.400Z,22.87
2024-01-08T11:14:25.500Z,22.89
2024-01-08T11:15:25.504Z,22.90
2024-01-08T11:16:25.604Z,22.90
2024-01-08T11:17:25.768Z,22.93
2024-01-08T11:18:29.390Z,22.99
2024-01-08T11:19:26.758Z,22.93
2024-01-08T11:20:25.737Z,22.96
2024-01-08T11:21:25.728Z,22.97
2024-01-08T11:22:25.771Z,22.97
2024-01-08T11:23:25.811Z,22.96
2024-01-08T11:24:25.718Z,22.97
2024-01-08T11:25:25.729Z,22.96
2024-01-08T11:26:25.745Z,22.99
2024-01-08T11:27:25.735Z,22.99
2024-01-08T11:28:25.729Z,23.03
2024-01-08T11:29:26.039Z,23.09
2024-01-08T11:30:25.916Z,23.18
2024-01-08T11:31:25.911Z,23.18
2024-01-08T11:32:26.010Z,23.20
2024-01-08T11:33:26.556Z,23.23
2024-01-08T11:34:26.173Z,23.27
2024-01-08T11:35:26.128Z,23.30
2024-01-08T11:36:26.162Z,23.34
2024-01-08T11:37:26.223Z,23.37
2024-01-08T11:38:26.383Z,23.43
2024-01-08T11:39:26.365Z,23.46
2024-01-08T11:40:26.415Z,23.44
2024-01-08T11:41:26.428Z,23.50
2024-01-08T11:42:26.426Z,23.50
2024-01-08T11:43:26.518Z,23.51
2024-01-08T11:44:26.541Z,23.53
2024-01-08T11:45:26.480Z,23.53
2024-01-08T11:46:26.461Z,23.54
2024-01-08T11:47:26.499Z,23.54
2024-01-08T11:48:26.643Z,23.56
2024-01-08T11:49:26.524Z,23.50
2024-01-08T11:50:26.572Z,23.51
2024-01-08T11:51:26.561Z,23.51
2024-01-08T11:52:26.596Z,23.50
2024-01-08T11:53:26.650Z,23.48
2024-01-08T11:54:26.649Z,23.48
2024-01-08T11:55:26.688Z,23.46
2024-01-08T11:56:26.825Z,23.44
2024-01-08T11:57:26.838Z,23.44
2024-01-08T11:58:26.802Z,23.44
2024-01-08T11:59:26.929Z,23.44
2024-01-08T12:00:26.866Z,23.40
2024-01-08T12:01:26.906Z,23.40
2024-01-08T12:02:27.027Z,23.38
2024-01-08T12:03:27.053Z,23.37
2024-01-08T12:04:27.028Z,23.35
2024-01-08T12:05:27.146Z,23.33
2024-01-08T12:06:27.222Z,23.31
2024-01-08T12:07:27.169Z,23.33
2024-01-08T12:08:27.238Z,23.31
2024-01-08T12:09:27.336Z,23.30
2024-01-08T12:10:27.292Z,23.28
2024-01-08T12:11:27.398Z,23.28
2024-01-08T12:12:27.395Z,23.28
2024-01-08T12:13:27.436Z,23.27
2024-01-08T12:14:27.480Z,23.27
2024-01-08T12:15:27.542Z,23.27
2024-01-08T12:16:27.577Z,23.27
2024-01-08T12:17:27.725Z,23.23
2024-01-08T12:18:27.821Z,23.24
2024-01-08T12:19:27.794Z,23.24
2024-01-08T12:20:27.803Z,23.25
2024-01-08T12:21:36.748Z,23.24
2024-01-08T12:22:28.849Z,23.25
2024-01-08T12:23:27.909Z,23.24
2024-01-08T12:24:27.862Z,23.21
2024-01-08T12:25:27.897Z,23.21
2024-01-08T12:26:27.907Z,23.20
2024-01-08T12:27:27.876Z,23.23
2024-01-08T12:28:27.839Z,23.20
2024-01-08T12:29:27.867Z,23.20
2024-01-08T12:30:27.924Z,23.20
2024-01-08T12:31:27.842Z,23.20
2024-01-08T12:32:27.965Z,23.18
2024-01-08T12:33:28.060Z,23.18
2024-01-08T12:34:28.054Z,23.18
2024-01-08T12:35:28.154Z,23.18
2024-01-08T12:36:28.113Z,23.17
2024-01-08T12:37:28.172Z,23.14
2024-01-08T12:38:28.239Z,23.18
2024-01-08T12:39:28.292Z,23.17
2024-01-08T12:40:28.342Z,23.14
2024-01-08T12:41:28.424Z,23.15
2024-01-08T12:42:28.462Z,23.14
2024-01-08T12:43:28.531Z,23.13
2024-01-08T12:44:29.067Z,23.13
2024-01-08T12:45:28.647Z,23.11
2024-01-08T12:46:28.736Z,23.11
2024-01-08T12:47:28.906Z,23.13
2024-01-08T12:48:29.003Z,23.13
2024-01-08T12:49:28.990Z,23.14
2024-01-08T12:50:29.007Z,23.13
2024-01-08T12:51:29.033Z,23.11
2024-01-08T12:52:29.088Z,23.10
2024-01-08T12:53:29.160Z,23.11
2024-01-08T12:54:29.244Z,23.11
2024-01-08T12:55:29.286Z,23.11
2024-01-08T12:56:29.361Z,23.09
2024-01-08T12:57:29.444Z,23.07
2024-01-08T12:58:29.474Z,23.11
2024-01-08T12:59:29.615Z,23.10
2024-01-08T13:00:29.613Z,23.10
2024-01-08T13:01:29.705Z,23.10
2024-01-08T13:02:29.870Z,23.07
2024-01-08T13:03:29.815Z,23.11
2024-01-08T13:04:30.016Z,23.07
2024-01-08T13:05:30.063Z,23.09
2024-01-08T13:06:30.816Z,23.09
2024-01-08T13:07:30.072Z,23.10
2024-01-08T13:08:30.148Z,23.09
2024-01-08T13:09:30.212Z,23.10
2024-01-08T13:10:30.264Z,23.09
2024-01-08T13:11:30.402Z,23.09
2024-01-08T13:12:30.400Z,23.07
2024-01-08T13:13:30.469Z,23.09
2024-01-08T13:14:30.550Z,23.09
2024-01-08T13:15:30.608Z,23.07
2024-01-08T13:16:30.725Z,23.07
2024-01-08T13:17:30.783Z,23.06
2024-01-08T13:18:31.045Z,23.03
2024-01-08T13:19:30.891Z,23.06
2024-01-08T13:20:31.084Z,23.04
2024-01-08T13:21:31.015Z,23.04
2024-01-08T13:22:31.093Z,23.02
2024-01-08T13:23:31.174Z,23.03
2024-01-08T13:24:31.303Z,23.03
2024-01-08T13:25:31.543Z,23.03
2024-01-08T13:26:31.388Z,23.00
2024-01-08T13:27:31.450Z,23.00
2024-01-08T13:28:31.506Z,23.04
2024-01-08T13:29:31.605Z,23.02
2024-01-08T13:30:31.680Z,23.02
2024-01-08T13:31:31.716Z,22.99
2024-01-08T13:32:31.832Z,22.99
2024-01-08T13:33:31.929Z,22.99
2024-01-08T13:34:32.051Z,22.99
2024-01-08T13:35:32.035Z,22.96
2024-01-08T13:36:32.069Z,22.97
2024-01-08T13:37:32.136Z,22.94
2024-01-08T13:38:32.266Z,22.93
2024-01-08T13:39:32.322Z,22.96
2024-01-08T13:40:32.364Z,22.94
2024-01-08T13:41:32.486Z,22.94
2024-01-08T13:42:32.493Z,22.92
2024-01-08T13:43:32.548Z,22.93
2024-01-08T13:44:32.658Z,22.90
2024-01-08T13:45:32.701Z,22.92
2024-01-08T13:46:32.812Z,22.89
2024-01-08T13:47:32.945Z,22.90
2024-01-08T13:48:33.335Z,22.90
2024-01-08T13:49:32.949Z,22.89
2024-01-08T13:50:32.980Z,22.89
2024-01-08T13:51:33.033Z,22.89
2024-01-08T13:52:33.065Z,22.86
2024-01-08T13:53:33.119Z,22.85
2024-01-08T13:54:33.174Z,22.86
2024-01-08T13:55:33.187Z,22.83
2024-01-08T13:56:33.262Z,22.83
2024-01-08T13:57:33.226Z,22.85
2024-01-08T13:58:33.230Z,22.85
2024-01-08T13:59:33.264Z,22.83
2024-01-08T14:00:33.278Z,22.83
2024-01-08T14:01:33.287Z,22.82
2024-01-08T14:02:33.441Z,22.80
2024-01-08T14:03:33.439Z,22.79
2024-01-08T14:04:33.359Z,22.80
2024-01-08T14:05:33.451Z,22.79
2024-01-08T14:06:33.420Z,22.79
2024-01-08T14:07:33.396Z,22.77
2024-01-08T14:08:33.483Z,22.79
2024-01-08T14:09:33.392Z,22.77
2024-01-08T14:10:33.394Z,22.76
2024-01-08T14:11:33.423Z,22.76
2024-01-08T14:12:33.433Z,22.76
2024-01-08T14:13:33.428Z,22.76
2024-01-08T14:14:33.491Z,22.74
2024-01-08T14:15:33.441Z,22.73
2024-01-08T14:16:33.430Z,22.76
2024-01-08T14:17:33.551Z,22.76
2024-01-08T14:18:33.550Z,22.76
2024-01-08T14:19:33.634Z,22.73
2024-01-08T14:20:33.512Z,22.73
2024-01-08T14:21:33.454Z,22.74
2024-01-08T14:22:33.464Z,22.71
2024-01-08T14:23:33.525Z,22.71
2024-01-08T14:24:33.483Z,22.70
2024-01-08T14:25:33.491Z,22.71
2024-01-08T14:26:33.528Z,22.70
2024-01-08T14:27:33.501Z,22.69
2024-01-08T14:28:33.508Z,22.70
2024-01-08T14:29:33.576Z,22.70
2024-01-08T14:30:33.600Z,22.70
2024-01-08T14:31:33.531Z,22.71
2024-01-08T14:32:33.596Z,22.71
2024-01-08T14:33:33.673Z,22.71
2024-01-08T14:34:33.643Z,22.69
2024-01-08T14:35:33.660Z,22.69
2024-01-08T14:36:33.606Z,22.69
2024-01-08T14:37:33.714Z,22.66
2024-01-08T14:38:33.643Z,22.67
2024-01-08T14:39:33.614Z,22.66
2024-01-08T14:40:33.627Z,22.69
2024-01-08T14:41:33.692Z,22.64
2024-01-08T14:42:33.634Z,22.66
2024-01-08T14:43:40.947Z,22.60
2024-01-08T14:44:41.119Z,22.63
2024-01-08T14:45:40.846Z,22.60
2024-01-08T14:46:40.882Z,22.60
2024-01-08T14:47:40.949Z,22.62
2024-01-08T14:48:40.899Z,22.60
2024-01-08T14:49:40.955Z,22.60
2024-01-08T14:50:40.855Z,22.59
2024-01-08T14:51:40.850Z,22.59
2024-01-08T14:52:40.836Z,22.60
2024-01-08T14:53:40.851Z,22.59
2024-01-08T14:54:40.841Z,22.58
2024-01-08T14:55:40.848Z,22.58
2024-01-08T14:56:40.964Z,22.58
2024-01-08T14:57:40.857Z,22.55
2024-01-08T14:58:40.896Z,22.56
2024-01-08T14:59:40.891Z,22.53
2024-01-08T15:00:40.867Z,22.53
2024-01-08T15:01:40.854Z,22.52
2024-01-08T15:02:41.468Z,22.52
2024-01-08T15:03:40.894Z,22.50
2024-01-08T15:04:40.854Z,22.49
2024-01-08T15:05:41.018Z,22.50
2024-01-08T15:06:40.875Z,22.46
2024-01-08T15:07:40.857Z,22.48